^^
No Wait Weather (KNEBELLE1) Station Historical Data
Daily Summary for May 11, 2019 Units:  English    Metric   Both
Daily Weekly Monthly Yearly Custom
  High: Low: Average:
Temperature: 62.4 °F 48.8 °F 54.9 °F
Dew Point: 50.23 °F 37.74 °F 44 °F
Humidity: 95% 51% 68%
Wind Speed: 10mph 0mph 0.2mph
Wind Gust: 12mph - -
Wind- - SW
Pressure: 29.93 in 29.66 in -
Precipitation: 0.2 in    
Historical Graphs
 
 
Tabular Data for May 11, 2019
Time Temperature Dew Point Pressure Wind Wind Speed Wind Gust Humidity Rainfall Rate (Hourly) solar
00:04 53.6 °F 37.83 °F 29.93 in Calm     55% 0 in WeatherCatV3.04B91 W/m2
00:09 53.6 °F 37.83 °F 29.93 in Calm     55% 0 in WeatherCatV3.04B91 W/m2
00:14 53.6 °F 37.83 °F 29.93 in Calm     55% 0 in WeatherCatV3.04B91 W/m2
00:18 53.5 °F 37.74 °F 29.93 in Calm   2 mph 55% 0 in WeatherCatV3.04B91 W/m2
00:24 53.5 °F 37.74 °F 29.93 in Calm   3 mph 55% 0 in WeatherCatV3.04B91 W/m2
00:29 53.5 °F 37.74 °F 29.93 in Calm     55% 0 in WeatherCatV3.04B91 W/m2
00:34 53.5 °F 37.74 °F 29.93 in Calm     55% 0 in WeatherCatV3.04B91 W/m2
00:39 53.5 °F 38.19 °F 29.93 in Calm   1 mph 56% 0 in WeatherCatV3.04B91 W/m2
00:44 53.3 °F 38.01 °F 29.92 in Calm   1 mph 56% 0 in WeatherCatV3.04B91 W/m2
00:49 53.3 °F 38.01 °F 29.92 in Calm   2 mph 56% 0 in WeatherCatV3.04B91 W/m2
00:54 53.3 °F 38.01 °F 29.92 in Calm     56% 0 in WeatherCatV3.04B91 W/m2
00:59 53.2 °F 37.91 °F 29.91 in Calm     56% 0 in WeatherCatV3.04B91 W/m2
01:04 53.2 °F 38.37 °F 29.91 in Calm     57% 0 in WeatherCatV3.04B91 W/m2
01:09 53.1 °F 38.27 °F 29.91 in Calm     57% 0 in WeatherCatV3.04B91 W/m2
01:14 53.1 °F 38.27 °F 29.91 in Calm     57% 0 in WeatherCatV3.04B91 W/m2
01:19 53.1 °F 38.27 °F 29.91 in Calm     57% 0 in WeatherCatV3.04B91 W/m2
01:24 52.9 °F 38.08 °F 29.91 in Calm     57% 0 in WeatherCatV3.04B91 W/m2
01:29 52.9 °F 38.08 °F 29.91 in Calm     57% 0 in WeatherCatV3.04B91 W/m2
01:34 52.9 °F 38.53 °F 29.91 in Calm     58% 0 in WeatherCatV3.04B91 W/m2
01:39 52.8 °F 38.43 °F 29.91 in Calm     58% 0 in WeatherCatV3.04B91 W/m2
01:44 52.8 °F 38.87 °F 29.91 in Calm     59% 0 in WeatherCatV3.04B91 W/m2
01:49 52.5 °F 38.59 °F 29.91 in Calm     59% 0 in WeatherCatV3.04B91 W/m2
01:54 52.3 °F 38.83 °F 29.91 in Calm     60% 0 in WeatherCatV3.04B91 W/m2
01:59 52.2 °F 38.74 °F 29.90 in Calm     60% 0 in WeatherCatV3.04B91 W/m2
02:04 51.9 °F 38.88 °F 29.90 in Calm     61% 0 in WeatherCatV3.04B91 W/m2
02:09 51.7 °F 39.1 °F 29.90 in Calm     62% 0 in WeatherCatV3.04B91 W/m2
02:14 51.6 °F 39.01 °F 29.89 in Calm     62% 0 in WeatherCatV3.04B91 W/m2
02:19 51.4 °F 39.23 °F 29.89 in Calm     63% 0 in WeatherCatV3.04B91 W/m2
02:24 51.3 °F 39.54 °F 29.89 in Calm     64% 0 in WeatherCatV3.04B91 W/m2
02:29 51 °F 39.65 °F 29.89 in Calm     65% 0 in WeatherCatV3.04B91 W/m2
02:34 50.8 °F 39.46 °F 29.89 in Calm     65% 0 in WeatherCatV3.04B91 W/m2
02:39 50.5 °F 39.57 °F 29.89 in Calm     66% 0 in WeatherCatV3.04B91 W/m2
02:44 50.4 °F 39.47 °F 29.89 in Calm     66% 0 in WeatherCatV3.04B91 W/m2
02:49 50.2 °F 39.67 °F 29.89 in Calm     67% 0 in WeatherCatV3.04B91 W/m2
02:54 50.1 °F 39.57 °F 29.89 in Calm     67% 0 in WeatherCatV3.04B91 W/m2
02:59 49.8 °F 39.67 °F 29.89 in Calm     68% 0 in WeatherCatV3.04B91 W/m2
03:04 49.8 °F 39.67 °F 29.89 in Calm     68% 0 in WeatherCatV3.04B91 W/m2
03:09 49.6 °F 39.85 °F 29.89 in Calm     69% 0 in WeatherCatV3.04B91 W/m2
03:14 49.5 °F 39.76 °F 29.89 in Calm     69% 0 in WeatherCatV3.04B91 W/m2
03:19 49.4 °F 39.66 °F 29.89 in Calm     69% 0 in WeatherCatV3.04B91 W/m2
03:24 49.4 °F 40.03 °F 29.89 in Calm     70% 0 in WeatherCatV3.04B91 W/m2
03:29 49.2 °F 39.84 °F 29.88 in Calm     70% 0 in WeatherCatV3.04B91 W/m2
03:34 49.4 °F 40.4 °F 29.88 in Calm     71% 0 in WeatherCatV3.04B91 W/m2
03:39 49.4 °F 40.4 °F 29.88 in Calm     71% 0 in WeatherCatV3.04B91 W/m2
03:44 49.4 °F 40.4 °F 29.88 in Calm     71% 0 in WeatherCatV3.04B91 W/m2
03:49 49.4 °F 40.76 °F 29.88 in Calm     72% 0 in WeatherCatV3.04B91 W/m2
03:54 49.5 °F 40.85 °F 29.88 in Calm   2 mph 72% 0 in WeatherCatV3.04B91 W/m2
03:59 49.6 °F 40.95 °F 29.88 in Calm   4 mph 72% 0 in WeatherCatV3.04B91 W/m2
04:04 50.1 °F 41.07 °F 29.88 in Calm   3 mph 71% 0 in WeatherCatV3.04B91 W/m2
04:09 50.4 °F 41.36 °F 29.88 in Calm   2 mph 71% 0 in WeatherCatV3.04B91 W/m2
04:14 50.7 °F 41.64 °F 29.88 in Calm     71% 0 in WeatherCatV3.04B91 W/m2
04:19 50.7 °F 41.64 °F 29.88 in Calm     71% 0 in WeatherCatV3.04B91 W/m2
04:24 50.7 °F 41.64 °F 29.88 in Calm   1 mph 71% 0 in WeatherCatV3.04B91 W/m2
04:29 50.7 °F 41.64 °F 29.88 in Calm     71% 0 in WeatherCatV3.04B91 W/m2
04:34 50.5 °F 41.45 °F 29.88 in Calm   3 mph 71% 0 in WeatherCatV3.04B91 W/m2
04:39 50.5 °F 41.81 °F 29.88 in Calm   2 mph 72% 0 in WeatherCatV3.04B91 W/m2
04:44 50.5 °F 41.81 °F 29.88 in Calm     72% 0 in WeatherCatV3.04B91 W/m2
04:49 50.5 °F 41.81 °F 29.88 in Calm   3 mph 72% 0 in WeatherCatV3.04B91 W/m2
04:54 50.5 °F 42.17 °F 29.88 in SW 2 mph 5 mph 73% 0 in WeatherCatV3.04B91 W/m2
04:59 50.5 °F 42.17 °F 29.88 in Calm   1 mph 73% 0 in WeatherCatV3.04B91 W/m2
05:04 50.5 °F 42.17 °F 29.88 in Calm   4 mph 73% 0 in WeatherCatV3.04B91 W/m2
05:09 50.5 °F 42.17 °F 29.88 in Calm   2 mph 73% 0 in WeatherCatV3.04B91 W/m2
05:14 50.7 °F 42.36 °F 29.88 in Calm   1 mph 73% 0 in WeatherCatV3.04B91 W/m2
05:19 50.5 °F 42.53 °F 29.88 in SSW 2 mph 2 mph 74% 0 in WeatherCatV3.04B91 W/m2
05:24 50.5 °F 42.53 °F 29.88 in Calm   1 mph 74% 0 in WeatherCatV3.04B91 W/m2
05:29 50.5 °F 42.53 °F 29.87 in Calm   6 mph 74% 0 in WeatherCatV3.04B91 W/m2
05:34 50.5 °F 42.53 °F 29.87 in Calm     74% 0 in WeatherCatV3.04B91 W/m2
05:39 50.4 °F 42.43 °F 29.87 in Calm     74% 0 in WeatherCatV3.04B91 W/m2
05:44 50.2 °F 42.24 °F 29.87 in Calm     74% 0 in WeatherCatV3.04B91 W/m2
05:49 50.2 °F 42.58 °F 29.87 in Calm     75% 0 in WeatherCatV3.04B91 W/m2
05:54 50.1 °F 42.49 °F 29.87 in Calm     75% 0 in WeatherCatV3.04B91 W/m2
05:59 49.9 °F 42.3 °F 29.87 in Calm     75% 0 in WeatherCatV3.04B91 W/m2
06:04 49.8 °F 42.2 °F 29.87 in Calm     75% 0 in WeatherCatV3.04B91 W/m2
06:09 49.6 °F 42.35 °F 29.87 in Calm     76% 0 in WeatherCatV3.04B91 W/m2
06:14 49.5 °F 42.25 °F 29.87 in Calm     76% 0 in WeatherCatV3.04B91 W/m2
06:19 49.4 °F 42.5 °F 29.87 in Calm     77% 0 in WeatherCatV3.04B91 W/m2
06:24 49.2 °F 42.3 °F 29.87 in Calm     77% 0 in WeatherCatV3.04B91 W/m2
06:29 49.1 °F 42.54 °F 29.87 in Calm     78% 0 in WeatherCatV3.04B91 W/m2
06:34 49.1 °F 42.87 °F 29.87 in Calm     79% 0 in WeatherCatV3.04B91 W/m2
06:39 48.9 °F 42.68 °F 29.87 in Calm     79% 0 in WeatherCatV3.04B91 W/m2
06:44 48.9 °F 42.68 °F 29.87 in Calm     79% 0 in WeatherCatV3.04B91 W/m2
06:49 48.8 °F 42.91 °F 29.87 in Calm     80% 0 in WeatherCatV3.04B91 W/m2
06:54 48.8 °F 42.91 °F 29.87 in Calm     80% 0 in WeatherCatV3.04B91 W/m2
06:59 48.8 °F 43.23 °F 29.87 in Calm     81% 0 in WeatherCatV3.04B91 W/m2
07:04 48.8 °F 43.23 °F 29.87 in Calm     81% 0 in WeatherCatV3.04B91 W/m2
07:09 48.8 °F 43.23 °F 29.87 in Calm     81% 0 in WeatherCatV3.04B91 W/m2
07:14 48.8 °F 43.55 °F 29.87 in Calm     82% 0 in WeatherCatV3.04B91 W/m2
07:19 48.9 °F 43.65 °F 29.87 in Calm     82% 0 in WeatherCatV3.04B91 W/m2
07:24 49.1 °F 43.84 °F 29.87 in Calm     82% 0 in WeatherCatV3.04B91 W/m2
07:29 49.2 °F 43.94 °F 29.87 in Calm     82% 0 in WeatherCatV3.04B91 W/m2
07:34 49.4 °F 43.82 °F 29.87 in Calm     81% 0 in WeatherCatV3.04B91 W/m2
07:39 49.5 °F 43.91 °F 29.87 in Calm     81% 0 in WeatherCatV3.04B91 W/m2
07:44 49.8 °F 43.88 °F 29.87 in Calm     80% 0 in WeatherCatV3.04B91 W/m2
07:49 49.9 °F 43.98 °F 29.87 in Calm     80% 0 in WeatherCatV3.04B91 W/m2
07:54 50.1 °F 43.84 °F 29.87 in Calm     79% 0 in WeatherCatV3.04B91 W/m2
07:59 50.2 °F 43.94 °F 29.87 in Calm     79% 0 in WeatherCatV3.04B91 W/m2
08:04 50.2 °F 43.61 °F 29.87 in Calm     78% 0 in WeatherCatV3.04B91 W/m2
08:09 50.2 °F 43.61 °F 29.87 in Calm   2 mph 78% 0 in WeatherCatV3.04B91 W/m2
08:14 50.2 °F 43.27 °F 29.87 in Calm   3 mph 77% 0 in WeatherCatV3.04B91 W/m2
08:19 50.4 °F 43.46 °F 29.87 in Calm     77% 0 in WeatherCatV3.04B91 W/m2
08:24 50.4 °F 43.46 °F 29.87 in Calm     77% 0 in WeatherCatV3.04B91 W/m2
08:29 50.5 °F 43.56 °F 29.87 in Calm     77% 0 in WeatherCatV3.04B91 W/m2
08:34 50.5 °F 43.9 °F 29.87 in Calm     78% 0 in WeatherCatV3.04B91 W/m2
08:39 50.7 °F 44.09 °F 29.87 in Calm     78% 0 in WeatherCatV3.04B91 W/m2
08:44 50.8 °F 44.19 °F 29.86 in Calm     78% 0 in WeatherCatV3.04B91 W/m2
08:49 51 °F 44.05 °F 29.86 in Calm     77% 0 in WeatherCatV3.04B91 W/m2
08:54 51.1 °F 44.14 °F 29.86 in Calm     77% 0 in WeatherCatV3.04B91 W/m2
08:59 51.4 °F 44.43 °F 29.86 in Calm     77% 0 in WeatherCatV3.04B91 W/m2
09:04 51.6 °F 44.63 °F 29.86 in Calm     77% 0 in WeatherCatV3.04B91 W/m2
09:09 51.6 °F 44.28 °F 29.86 in Calm     76% 0 in WeatherCatV3.04B91 W/m2
09:14 51.7 °F 44.38 °F 29.85 in Calm     76% 0 in WeatherCatV3.04B91 W/m2
09:19 51.7 °F 44.38 °F 29.85 in Calm     76% 0 in WeatherCatV3.04B91 W/m2
09:24 52 °F 44.67 °F 29.85 in Calm     76% 0 in WeatherCatV3.04B91 W/m2
09:29 52.2 °F 44.86 °F 29.85 in Calm     76% 0 in WeatherCatV3.04B91 W/m2
09:34 52.3 °F 44.61 °F 29.85 in Calm     75% 0 in WeatherCatV3.04B91 W/m2
09:39 52.6 °F 44.9 °F 29.85 in Calm     75% 0 in WeatherCatV3.04B91 W/m2
09:44 52.9 °F 44.84 °F 29.85 in Calm     74% 0 in WeatherCatV3.04B91 W/m2
09:49 53.3 °F 44.87 °F 29.85 in Calm     73% 0 in WeatherCatV3.04B91 W/m2
09:54 53.5 °F 44.7 °F 29.85 in Calm     72% 0 in WeatherCatV3.04B91 W/m2
09:59 53.6 °F 44.79 °F 29.84 in Calm     72% 0 in WeatherCatV3.04B91 W/m2
10:04 53.6 °F 44.79 °F 29.84 in Calm     72% 0 in WeatherCatV3.04B91 W/m2
10:09 53.6 °F 44.79 °F 29.84 in Calm     72% 0 in WeatherCatV3.04B91 W/m2
10:14 53.8 °F 44.99 °F 29.84 in Calm   1 mph 72% 0 in WeatherCatV3.04B91 W/m2
10:19 53.9 °F 45.45 °F 29.84 in Calm     73% 0 in WeatherCatV3.04B91 W/m2
10:24 54.1 °F 45.64 °F 29.84 in Calm     73% 0 in WeatherCatV3.04B91 W/m2
10:29 54.4 °F 45.93 °F 29.84 in Calm     73% 0 in WeatherCatV3.04B91 W/m2
10:34 54.4 °F 45.56 °F 29.84 in Calm     72% 0 in WeatherCatV3.04B91 W/m2
10:39 54.7 °F 45.85 °F 29.84 in Calm   1 mph 72% 0 in WeatherCatV3.04B91 W/m2
10:44 55 °F 46.14 °F 29.84 in Calm     72% 0 in WeatherCatV3.04B91 W/m2
10:49 55.3 °F 46.06 °F 29.84 in Calm     71% 0 in WeatherCatV3.04B91 W/m2
10:54 55.6 °F 45.97 °F 29.84 in Calm     70% 0 in WeatherCatV3.04B91 W/m2
10:59 55.9 °F 45.88 °F 29.83 in Calm     69% 0 in WeatherCatV3.04B91 W/m2
11:04 56.3 °F 46.26 °F 29.83 in Calm   3 mph 69% 0 in WeatherCatV3.04B91 W/m2
11:09 57 °F 46.93 °F 29.83 in Calm   2 mph 69% 0 in WeatherCatV3.04B91 W/m2
11:14 57.3 °F 46.04 °F 29.82 in Calm     66% 0 in WeatherCatV3.04B91 W/m2
11:19 57.5 °F 45.82 °F 29.82 in Calm   1 mph 65% 0 in WeatherCatV3.04B91 W/m2
11:24 57.2 °F 45.54 °F 29.82 in Calm     65% 0 in WeatherCatV3.04B91 W/m2
11:29 57.3 °F 45.64 °F 29.82 in Calm   3 mph 65% 0 in WeatherCatV3.04B91 W/m2
11:34 57 °F 45.35 °F 29.82 in Calm   1 mph 65% 0 in WeatherCatV3.04B91 W/m2
11:39 57 °F 45.75 °F 29.82 in Calm   3 mph 66% 0 in WeatherCatV3.04B91 W/m2
11:44 57 °F 46.15 °F 29.82 in West 1 mph 3 mph 67% 0 in WeatherCatV3.04B91 W/m2
11:49 57.2 °F 45.94 °F 29.82 in Calm     66% 0 in WeatherCatV3.04B91 W/m2
11:54 57 °F 44.94 °F 29.82 in Calm     64% 0 in WeatherCatV3.04B91 W/m2
11:59 57.2 °F 45.54 °F 29.82 in Calm   4 mph 65% 0 in WeatherCatV3.04B91 W/m2
12:04 57.2 °F 45.54 °F 29.82 in East 3 mph 3 mph 65% 0 in WeatherCatV3.04B91 W/m2
12:09 57.2 °F 45.54 °F 29.82 in Calm   2 mph 65% 0 in WeatherCatV3.04B91 W/m2
12:14 57 °F 45.35 °F 29.81 in Calm   1 mph 65% 0 in WeatherCatV3.04B91 W/m2
12:19 57 °F 45.35 °F 29.81 in Calm   4 mph 65% 0 in WeatherCatV3.04B91 W/m2
12:24 57.2 °F 45.13 °F 29.81 in Calm     64% 0 in WeatherCatV3.04B91 W/m2
12:29 57.6 °F 45.51 °F 29.80 in Calm   7 mph 64% 0 in WeatherCatV3.04B91 W/m2
12:34 58 °F 46.3 °F 29.80 in Calm     65% 0 in WeatherCatV3.04B91 W/m2
12:39 58.3 °F 45.76 °F 29.80 in Calm   5 mph 63% 0 in WeatherCatV3.04B91 W/m2
12:44 58.7 °F 45.28 °F 29.80 in Calm   9 mph 61% 0 in WeatherCatV3.04B91 W/m2
12:49 58.4 °F 45 °F 29.80 in Calm   7 mph 61% 0 in WeatherCatV3.04B91 W/m2
12:54 58.6 °F 46.04 °F 29.80 in SW 3 mph 6 mph 63% 0 in WeatherCatV3.04B91 W/m2
12:59 58.9 °F 45.9 °F 29.80 in WSW 10 mph 10 mph 62% 0 in WeatherCatV3.04B91 W/m2
13:04 58.9 °F 45.47 °F 29.80 in Calm     61% 0 in WeatherCatV3.04B91 W/m2
13:09 58.9 °F 45.04 °F 29.80 in Calm   7 mph 60% 0 in WeatherCatV3.04B91 W/m2
13:14 59.2 °F 46.19 °F 29.79 in WSW 3 mph 12 mph 62% 0 in WeatherCatV3.04B91 W/m2
13:19 59.5 °F 46.04 °F 29.79 in Calm   6 mph 61% 0 in WeatherCatV3.04B91 W/m2
13:24 59.5 °F 46.04 °F 29.79 in Calm   3 mph 61% 0 in WeatherCatV3.04B91 W/m2
13:29 59.3 °F 45.41 °F 29.79 in Calm   7 mph 60% 0 in WeatherCatV3.04B91 W/m2
13:34 59.6 °F 45.7 °F 29.79 in Calm   4 mph 60% 0 in WeatherCatV3.04B91 W/m2
13:39 59.5 °F 45.6 °F 29.79 in Calm   1 mph 60% 0 in WeatherCatV3.04B91 W/m2
13:44 59.2 °F 45.76 °F 29.79 in Calm   1 mph 61% 0 in WeatherCatV3.04B91 W/m2
13:49 59 °F 45.57 °F 29.79 in Calm     61% 0 in WeatherCatV3.04B91 W/m2
13:54 59.9 °F 46.85 °F 29.79 in Calm   6 mph 62% 0 in WeatherCatV3.04B91 W/m2
13:59 60.5 °F 46.1 °F 29.78 in Calm   1 mph 59% 0 in WeatherCatV3.04B91 W/m2
14:04 61 °F 45.19 °F 29.78 in SSW 4 mph 6 mph 56% 0 in WeatherCatV3.04B91 W/m2
14:09 61.3 °F 46.39 °F 29.78 in Calm     58% 0 in WeatherCatV3.04B91 W/m2
14:14 62 °F 46.12 °F 29.77 in Calm   7 mph 56% 0 in WeatherCatV3.04B91 W/m2
14:19 61.8 °F 45.46 °F 29.77 in Calm   5 mph 55% 0 in WeatherCatV3.04B91 W/m2
14:24 62 °F 44.17 °F 29.77 in Calm   5 mph 52% 0 in WeatherCatV3.04B91 W/m2
14:29 61.6 °F 44.3 °F 29.77 in Calm     53% 0 in WeatherCatV3.04B91 W/m2
14:34 62 °F 45.16 °F 29.77 in Calm   4 mph 54% 0 in WeatherCatV3.04B91 W/m2
14:39 61.6 °F 44.3 °F 29.77 in Calm   3 mph 53% 0 in WeatherCatV3.04B91 W/m2
14:44 61.6 °F 44.79 °F 29.75 in WSW 4 mph 5 mph 54% 0 in WeatherCatV3.04B91 W/m2
14:49 62 °F 45.16 °F 29.75 in Calm   4 mph 54% 0 in WeatherCatV3.04B91 W/m2
14:54 62.4 °F 45.04 °F 29.75 in Calm     53% 0 in WeatherCatV3.04B91 W/m2
14:59 62.3 °F 44.45 °F 29.74 in Calm   2 mph 52% 0 in WeatherCatV3.04B91 W/m2
15:04 61.6 °F 43.29 °F 29.74 in Calm   1 mph 51% 0 in WeatherCatV3.04B91 W/m2
15:09 60.9 °F 43.65 °F 29.74 in SSW 1 mph 1 mph 53% 0 in WeatherCatV3.04B91 W/m2
15:14 60.9 °F 44.14 °F 29.73 in Calm   3 mph 54% 0 in WeatherCatV3.04B91 W/m2
15:19 60.7 °F 43.47 °F 29.73 in Calm     53% 0 in WeatherCatV3.04B91 W/m2
15:24 60.5 °F 43.28 °F 29.73 in Calm   2 mph 53% 0 in WeatherCatV3.04B91 W/m2
15:29 60.7 °F 42.97 °F 29.72 in Calm     52% 0 in WeatherCatV3.04B91 W/m2
15:34 61 °F 43.74 °F 29.72 in Calm     53% 0 in WeatherCatV3.04B91 W/m2
15:39 61.2 °F 43.93 °F 29.72 in Calm   2 mph 53% 0 in WeatherCatV3.04B91 W/m2
15:44 61.3 °F 43.02 °F 29.71 in Calm   1 mph 51% 0 in WeatherCatV3.04B91 W/m2
15:49 61.2 °F 43.43 °F 29.71 in Calm   4 mph 52% 0 in WeatherCatV3.04B91 W/m2
15:54 61.2 °F 43.43 °F 29.71 in Calm     52% 0 in WeatherCatV3.04B91 W/m2
15:59 60.7 °F 42.97 °F 29.71 in Calm     52% 0 in WeatherCatV3.04B91 W/m2
16:04 60.4 °F 43.19 °F 29.71 in Calm     53% 0 in WeatherCatV3.04B91 W/m2
16:09 60.1 °F 43.88 °F 29.71 in Calm     55% 0 in WeatherCatV3.04B91 W/m2
16:14 59.8 °F 43.12 °F 29.71 in Calm     54% 0 in WeatherCatV3.04B91 W/m2
16:19 59.6 °F 42.93 °F 29.71 in Calm     54% 0 in WeatherCatV3.04B91 W/m2
16:24 59.6 °F 43.88 °F 29.71 in Calm     56% 0 in WeatherCatV3.04B91 W/m2
16:29 60.1 °F 44.35 °F 29.70 in Calm     56% 0 in WeatherCatV3.04B91 W/m2
16:34 60.4 °F 43.68 °F 29.70 in Calm     54% 0 in WeatherCatV3.04B91 W/m2
16:39 60.5 °F 44.25 °F 29.70 in Calm     55% 0 in WeatherCatV3.04B91 W/m2
16:44 60.4 °F 44.16 °F 29.69 in Calm     55% 0 in WeatherCatV3.04B91 W/m2
16:49 60.4 °F 44.16 °F 29.69 in Calm   2 mph 55% 0 in WeatherCatV3.04B91 W/m2
16:54 60.7 °F 44.43 °F 29.69 in Calm     55% 0 in WeatherCatV3.04B91 W/m2
16:59 61.2 °F 44.9 °F 29.69 in Calm     55% 0 in WeatherCatV3.04B91 W/m2
17:04 61.6 °F 44.3 °F 29.69 in SW 1 mph 5 mph 53% 0 in WeatherCatV3.04B91 W/m2
17:09 62 °F 45.16 °F 29.69 in Calm   2 mph 54% 0 in WeatherCatV3.04B91 W/m2
17:14 62.1 °F 44.76 °F 29.68 in Calm   3 mph 53% 0 in WeatherCatV3.04B91 W/m2
17:19 62.3 °F 45.44 °F 29.68 in Calm     54% 0 in WeatherCatV3.04B91 W/m2
17:24 62.1 °F 44.26 °F 29.68 in Calm     52% 0 in WeatherCatV3.04B91 W/m2
17:29 62 °F 44.17 °F 29.68 in Calm     52% 0 in WeatherCatV3.04B91 W/m2
17:34 61.8 °F 43.98 °F 29.68 in Calm     52% 0 in WeatherCatV3.04B91 W/m2
17:39 61.8 °F 43.98 °F 29.68 in Calm   6 mph 52% 0 in WeatherCatV3.04B91 W/m2
17:44 62 °F 45.16 °F 29.68 in WSW 2 mph 3 mph 54% 0 in WeatherCatV3.04B91 W/m2
17:49 62 °F 44.17 °F 29.68 in Calm   3 mph 52% 0 in WeatherCatV3.04B91 W/m2
17:54 61.5 °F 44.21 °F 29.68 in Calm     53% 0 in WeatherCatV3.04B91 W/m2
17:59 61.3 °F 44.51 °F 29.68 in WSW 1 mph 3 mph 54% 0 in WeatherCatV3.04B91 W/m2
18:04 61 °F 44.23 °F 29.68 in Calm   2 mph 54% 0 in WeatherCatV3.04B91 W/m2
18:09 60.7 °F 44.43 °F 29.68 in Calm     55% 0 in WeatherCatV3.04B91 W/m2
18:14 60.5 °F 44.25 °F 29.68 in Calm   2 mph 55% 0 in WeatherCatV3.04B91 W/m2
18:19 60.2 °F 43.49 °F 29.68 in Calm     54% 0 in WeatherCatV3.04B91 W/m2
18:24 59.9 °F 44.16 °F 29.68 in Calm     56% 0 in WeatherCatV3.04B91 W/m2
18:29 59.8 °F 44.53 °F 29.68 in Calm   1 mph 57% 0 in WeatherCatV3.04B91 W/m2
18:34 59.6 °F 43.88 °F 29.68 in Calm   5 mph 56% 0 in WeatherCatV3.04B91 W/m2
18:39 59.5 °F 43.79 °F 29.68 in Calm     56% 0 in WeatherCatV3.04B91 W/m2
18:44 59.5 °F 43.79 °F 29.67 in Calm   5 mph 56% 0 in WeatherCatV3.04B91 W/m2
18:49 59.3 °F 44.07 °F 29.67 in Calm   2 mph 57% 0 in WeatherCatV3.04B91 W/m2
18:54 59.2 °F 43.97 °F 29.67 in Calm     57% 0 in WeatherCatV3.04B91 W/m2
18:59 59 °F 43.79 °F 29.66 in Calm     57% 0 in WeatherCatV3.04B91 W/m2
19:04 58.9 °F 44.15 °F 29.66 in Calm     58% 0 in WeatherCatV3.04B91 W/m2
19:09 58.7 °F 43.51 °F 29.66 in Calm   2 mph 57% 0 in WeatherCatV3.04B91 W/m2
19:14 58.7 °F 43.96 °F 29.66 in Calm   4 mph 58% 0 in WeatherCatV3.04B91 W/m2
19:19 58.6 °F 43.87 °F 29.66 in Calm   4 mph 58% 0 in WeatherCatV3.04B91 W/m2
19:24 58.4 °F 43.68 °F 29.66 in Calm   3 mph 58% 0 in WeatherCatV3.04B91 W/m2
19:29 58.3 °F 43.59 °F 29.66 in Calm   5 mph 58% 0 in WeatherCatV3.04B91 W/m2
19:34 58.1 °F 43.4 °F 29.66 in Calm     58% 0 in WeatherCatV3.04B91 W/m2
19:39 58 °F 43.75 °F 29.66 in Calm     59% 0 in WeatherCatV3.04B91 W/m2
19:44 58 °F 43.75 °F 29.66 in Calm   4 mph 59% 0 in WeatherCatV3.04B91 W/m2
19:49 57.8 °F 43.56 °F 29.66 in Calm   6 mph 59% 0 in WeatherCatV3.04B91 W/m2
19:54 57.6 °F 43.38 °F 29.66 in Calm   3 mph 59% 0 in WeatherCatV3.04B91 W/m2
19:59 57.6 °F 43.38 °F 29.66 in Calm   1 mph 59% 0 in WeatherCatV3.04B91 W/m2
20:04 57.6 °F 43.38 °F 29.66 in SW 2 mph 2 mph 59% 0 in WeatherCatV3.04B91 W/m2
20:09 57.5 °F 43.72 °F 29.66 in Calm   2 mph 60% 0 in WeatherCatV3.04B91 W/m2
20:14 57.5 °F 43.72 °F 29.66 in Calm     60% 0 in WeatherCatV3.04B91 W/m2
20:19 57.5 °F 45.42 °F 29.66 in Calm     64% 0 in WeatherCatV3.04B91 W/m2
20:24 57.3 °F 46.44 °F 29.66 in Calm     67% 0 in WeatherCatV3.04B91 W/m2
20:29 57 °F 46.93 °F 29.66 in Calm   1 mph 69% 0 in WeatherCatV3.04B91 W/m2
20:34 56.7 °F 47.02 °F 29.66 in Calm   2 mph 70% 0 in WeatherCatV3.04B91 W/m2
20:39 56.6 °F 46.93 °F 29.66 in Calm   3 mph 70% 0 in WeatherCatV3.04B91 W/m2
20:44 56.5 °F 46.83 °F 29.66 in Calm   2 mph 70% 0 in WeatherCatV3.04B91 W/m2
20:49 56.3 °F 47.02 °F 29.66 in Calm     71% 0 in WeatherCatV3.04B91 W/m2
20:54 56.2 °F 46.92 °F 29.66 in Calm   2 mph 71% 0 in WeatherCatV3.04B91 W/m2
20:59 56.2 °F 47.29 °F 29.66 in Calm   2 mph 72% 0 in WeatherCatV3.04B91 W/m2
21:04 56 °F 47.1 °F 29.66 in Calm   4 mph 72% 0 in WeatherCatV3.04B91 W/m2
21:09 55.9 °F 47 °F 29.66 in Calm     72% 0 in WeatherCatV3.04B91 W/m2
21:14 55.7 °F 47.18 °F 29.66 in Calm     73% 0 in WeatherCatV3.04B91 W/m2
21:19 55.7 °F 47.18 °F 29.66 in Calm   6 mph 73% 0 in WeatherCatV3.04B91 W/m2
21:24 55.6 °F 47.44 °F 29.66 in Calm   9 mph 74% 0 in WeatherCatV3.04B91 W/m2
21:29 55.6 °F 47.44 °F 29.67 in Calm   4 mph 74% 0 in WeatherCatV3.04B91 W/m2
21:34 55.4 °F 47.25 °F 29.67 in Calm   2 mph 74% 0 in WeatherCatV3.04B91 W/m2
21:39 55.4 °F 47.25 °F 29.67 in Calm     74% 0 in WeatherCatV3.04B91 W/m2
21:44 55.3 °F 47.15 °F 29.68 in Calm   4 mph 74% 0 in WeatherCatV3.04B91 W/m2
21:49 55.3 °F 47.51 °F 29.68 in WSW 3 mph 7 mph 75% 0 in WeatherCatV3.04B91 W/m2
21:54 55.1 °F 48.36 °F 29.68 in SSW 2 mph 4 mph 78% 0 in WeatherCatV3.04B91 W/m2
21:59 54.8 °F 49.08 °F 29.69 in Calm     81% 0.79 in WeatherCatV3.04B91 W/m2
22:04 54.1 °F 49.37 °F 29.69 in Calm     84% 0.15 in WeatherCatV3.04B91 W/m2
22:09 53.8 °F 49.71 °F 29.69 in Calm     86% 0.09 in WeatherCatV3.04B91 W/m2
22:14 53.5 °F 50.03 °F 29.69 in Calm     88% 0.08 in WeatherCatV3.04B91 W/m2
22:19 53.2 °F 50.04 °F 29.69 in Calm     89% 0.08 in WeatherCatV3.04B91 W/m2
22:24 53.1 °F 49.94 °F 29.69 in Calm     89% 0.09 in WeatherCatV3.04B91 W/m2
22:29 52.8 °F 49.95 °F 29.69 in Calm     90% 0.08 in WeatherCatV3.04B91 W/m2
22:34 52.6 °F 49.75 °F 29.69 in Calm     90% 0.08 in WeatherCatV3.04B91 W/m2
22:39 52.5 °F 49.95 °F 29.69 in Calm     91% 0.1 in WeatherCatV3.04B91 W/m2
22:44 52.3 °F 49.75 °F 29.69 in Calm     91% 0.2 in WeatherCatV3.04B91 W/m2
22:49 52.2 °F 49.95 °F 29.69 in Calm     92% 0.09 in WeatherCatV3.04B91 W/m2
22:54 52.2 °F 49.95 °F 29.69 in Calm     92% 0.07 in WeatherCatV3.04B91 W/m2
22:59 52 °F 49.75 °F 29.69 in Calm     92% 0.07 in WeatherCatV3.04B91 W/m2
23:04 52 °F 50.04 °F 29.69 in Calm     93% 0.05 in WeatherCatV3.04B91 W/m2
23:09 51.9 °F 49.94 °F 29.69 in Calm     93% 0.05 in WeatherCatV3.04B91 W/m2
23:14 51.9 °F 49.94 °F 29.69 in Calm     93% 0.05 in WeatherCatV3.04B91 W/m2
23:19 51.9 °F 49.94 °F 29.69 in Calm     93% 0.04 in WeatherCatV3.04B91 W/m2
23:24 51.9 °F 50.23 °F 29.69 in Calm     94% 0 in WeatherCatV3.04B91 W/m2
23:29 51.9 °F 50.23 °F 29.69 in Calm   1 mph 94% 0 in WeatherCatV3.04B91 W/m2
23:34 51.7 °F 50.03 °F 29.69 in Calm     94% 0 in WeatherCatV3.04B91 W/m2
23:39 51.6 °F 49.93 °F 29.69 in Calm     94% 0 in WeatherCatV3.04B91 W/m2
23:44 51.4 °F 49.73 °F 29.69 in Calm     94% 0 in WeatherCatV3.04B91 W/m2
23:49 51.3 °F 49.92 °F 29.69 in Calm     95% 0 in WeatherCatV3.04B91 W/m2
23:53 51.1 °F 49.72 °F 29.69 in Calm     95% 0 in WeatherCatV3.04B91 W/m2
23:59 51 °F 49.62 °F 29.69 in Calm     95% 0 in WeatherCatV3.04B91 W/m2
Bellevue, Nebraska, USA
Compliments of Weather Underground - 3.25 mb